Time;durP1;ratioP1;P1;durP2;ratioP2;P2;SDS_P1;SDS_P2;PMS_P1;PMS_P2;Temp;Humidity;BMP_temperature;BMP_pressure;BME280_temperature;BME280_humidity;BME280_pressure;Samples;Min_cycle;Max_cycle;Signal;HPM_P1;HPM_P2
2023/05/07 00:02:09;;;;;;;11.77;9.30;;;10.30;99.90;;;-141.84;77.02;19750.84;5032986;28;20562;-54
2023/05/07 00:04:38;;;;;;;10.33;8.63;;;10.20;99.90;;;-141.84;77.49;19712.22;5033196;28;20252;-55
2023/05/07 00:07:06;;;;;;;11.67;9.03;;;10.10;99.90;;;-141.84;76.97;19716.28;5032824;28;20322;-55
2023/05/07 00:09:35;;;;;;;9.97;8.43;;;10.20;99.90;;;-141.84;76.76;19716.28;5033053;28;20213;-53
2023/05/07 00:12:03;;;;;;;9.90;8.80;;;10.20;99.90;;;-141.84;76.72;19691.91;5033214;28;20206;-54
2023/05/07 00:14:31;;;;;;;10.90;9.40;;;10.10;99.90;;;-141.84;77.07;19720.34;5033223;28;20206;-55
2023/05/07 00:16:59;;;;;;;10.10;9.10;;;10.10;99.90;;;-141.84;76.93;19722.38;5032933;28;20198;-54
2023/05/07 00:19:29;;;;;;;10.17;9.13;;;10.20;99.90;;;-141.84;76.30;19744.75;5032710;28;20217;-54
2023/05/07 00:21:58;;;;;;;10.67;9.07;;;10.20;99.90;;;-141.84;77.08;19732.53;5032988;28;20214;-54
2023/05/07 00:24:26;;;;;;;10.07;8.13;;;10.20;99.90;;;-141.84;77.53;19698.00;5032952;28;20336;-56
2023/05/07 00:26:54;;;;;;;9.63;8.63;;;10.20;99.90;;;-141.84;77.67;19700.03;5032238;28;20242;-54
2023/05/07 00:29:22;;;;;;;9.63;8.20;;;10.10;99.90;;;-141.84;77.82;19689.88;5032954;28;20198;-54
2023/05/07 00:31:51;;;;;;;10.10;8.27;;;10.10;99.90;;;-141.84;77.08;19669.53;5032529;28;20209;-53
2023/05/07 00:34:20;;;;;;;10.67;8.87;;;10.20;99.90;;;-141.84;76.40;19716.28;5032359;28;20765;-54
2023/05/07 00:36:50;;;;;;;11.17;8.47;;;10.10;99.90;;;-141.84;76.93;19681.75;5032605;28;20221;-54
2023/05/07 00:39:18;;;;;;;11.73;8.70;;;10.10;99.90;;;-141.84;77.14;19728.47;5032780;28;20202;-55
2023/05/07 00:41:47;;;;;;;10.73;9.60;;;10.00;99.90;;;-141.84;76.76;19704.09;5032280;28;20197;-54
2023/05/07 00:44:15;;;;;;;10.43;9.20;;;10.10;99.90;;;-141.84;76.56;19687.84;5032471;28;20218;-54
2023/05/07 00:46:44;;;;;;;10.10;8.57;;;10.10;99.90;;;-141.84;77.08;19687.84;5032426;28;20241;-54
2023/05/07 00:49:13;;;;;;;10.60;9.17;;;10.00;99.90;;;-141.84;77.44;19736.59;5032278;28;20662;-56
2023/05/07 00:51:41;;;;;;;9.53;8.43;;;10.00;99.90;;;-141.84;76.20;19716.28;5032153;28;20325;-52
2023/05/07 00:54:11;;;;;;;9.90;8.87;;;10.10;99.90;;;-141.84;77.26;19687.84;5032420;28;20202;-55
2023/05/07 00:56:40;;;;;;;10.80;8.73;;;10.10;99.90;;;-141.84;76.67;19691.91;5031945;28;20213;-56
2023/05/07 00:59:09;;;;;;;10.07;9.07;;;10.10;99.90;;;-141.84;76.78;19687.84;5031962;28;20720;-53
2023/05/07 01:01:37;;;;;;;10.70;9.07;;;10.10;99.90;;;-141.84;76.75;19700.03;5032345;28;20237;-53
2023/05/07 01:04:05;;;;;;;12.17;10.00;;;10.10;99.90;;;-141.84;76.71;19679.72;5032296;28;20637;-54
2023/05/07 01:06:35;;;;;;;10.87;9.77;;;10.00;99.90;;;-141.84;76.81;19730.50;5031675;28;20218;-54
2023/05/07 01:09:04;;;;;;;11.53;10.27;;;10.10;99.90;;;-141.84;76.17;19695.97;5032221;28;20279;-56
2023/05/07 01:11:34;;;;;;;11.27;10.00;;;10.10;99.90;;;-141.84;76.01;19700.03;5032094;28;20201;-57
2023/05/07 01:14:03;;;;;;;10.80;9.70;;;10.00;99.90;;;-141.84;77.28;19681.75;5032594;28;20202;-54
2023/05/07 01:16:32;;;;;;;11.20;9.73;;;9.90;99.90;;;-141.84;76.61;19698.00;5031934;28;20202;-54
2023/05/07 01:19:02;;;;;;;11.23;9.90;;;10.00;99.90;;;-141.84;76.84;19712.22;5032104;28;20206;-53
2023/05/07 01:21:35;;;;;;;12.37;10.00;;;10.00;99.90;;;-141.84;76.65;19726.44;5031857;28;20209;-54
2023/05/07 01:24:05;;;;;;;11.97;9.93;;;10.00;99.90;;;-141.84;75.96;19698.00;5032160;28;20194;-55
2023/05/07 01:26:34;;;;;;;11.50;9.93;;;10.10;99.90;;;-141.84;76.00;19740.69;5031559;28;20724;-54
2023/05/07 01:29:02;;;;;;;12.03;10.67;;;10.10;99.90;;;-141.84;75.76;19724.41;5031689;28;20194;-55
2023/05/07 01:31:30;;;;;;;12.10;10.80;;;10.10;99.90;;;-141.84;76.26;19687.84;5031613;28;20210;-56
2023/05/07 01:34:02;;;;;;;12.07;10.27;;;10.00;99.90;;;-141.84;76.74;19661.41;5031855;28;20253;-52
2023/05/07 01:36:32;;;;;;;11.90;10.60;;;10.00;99.90;;;-141.84;76.56;19700.03;5031883;28;20182;-55
2023/05/07 01:39:01;;;;;;;12.50;11.10;;;10.00;99.90;;;-141.84;76.76;19695.97;5031813;28;20203;-55
2023/05/07 01:41:31;;;;;;;12.40;10.80;;;10.00;99.90;;;-141.84;77.18;19687.84;5031889;28;20201;-56
2023/05/07 01:44:00;;;;;;;13.53;11.73;;;9.90;99.90;;;-141.84;76.86;19708.16;5032086;28;20202;-54
2023/05/07 01:46:29;;;;;;;13.37;11.73;;;10.00;99.90;;;-141.84;76.44;19704.09;5031588;28;20222;-55
2023/05/07 01:48:58;;;;;;;16.67;12.00;;;10.00;99.90;;;-141.84;75.83;19704.09;5031776;28;20210;-53
2023/05/07 01:51:27;;;;;;;15.90;13.13;;;10.00;99.90;;;-141.84;76.05;19683.78;5037338;28;20612;-53
2023/05/07 01:53:55;;;;;;;16.20;13.07;;;10.00;99.90;;;-141.84;76.60;19693.94;5038214;28;20201;-53
2023/05/07 01:56:24;;;;;;;14.20;12.70;;;10.00;99.90;;;-141.84;77.00;19691.91;5037843;28;20670;-54
2023/05/07 01:58:53;;;;;;;16.47;13.50;;;10.00;99.90;;;-141.84;77.35;19687.84;5038095;28;20206;-56
2023/05/07 02:01:22;;;;;;;15.43;13.27;;;10.00;99.90;;;-141.84;76.44;19726.44;5037802;28;20727;-54
2023/05/07 02:03:50;;;;;;;14.53;12.07;;;10.00;99.90;;;-141.84;76.56;19675.63;5038028;28;20220;-54
2023/05/07 02:06:19;;;;;;;14.37;12.60;;;10.10;99.90;;;-141.84;76.29;19691.91;5038028;28;20201;-53
2023/05/07 02:08:48;;;;;;;15.40;13.63;;;10.00;99.90;;;-141.84;76.34;19637.03;5037957;28;20209;-52
2023/05/07 02:11:16;;;;;;;14.40;12.87;;;10.00;99.90;;;-141.84;77.21;19702.06;5038225;28;20201;-54
2023/05/07 02:13:44;;;;;;;15.70;13.77;;;9.90;99.90;;;-141.84;76.99;19695.97;5038150;28;20214;-52
2023/05/07 02:16:14;;;;;;;14.77;13.20;;;9.90;99.90;;;-141.84;76.78;19687.84;5037786;28;20205;-52
2023/05/07 02:18:42;;;;;;;16.63;13.30;;;9.90;99.90;;;-141.84;77.12;19693.94;5037772;28;20731;-51
2023/05/07 02:21:10;;;;;;;15.60;13.80;;;9.90;99.90;;;-141.84;77.70;19639.06;5037956;28;20209;-52
2023/05/07 02:23:39;;;;;;;15.17;13.57;;;9.90;99.90;;;-141.84;77.48;19683.78;5037612;28;20210;-50
2023/05/07 02:26:07;;;;;;;14.87;13.07;;;9.80;99.90;;;-141.84;75.84;19710.19;5037825;28;20194;-54
2023/05/07 02:28:36;;;;;;;14.93;13.20;;;10.00;99.90;;;-141.84;76.39;19683.78;5037659;28;20696;-53
2023/05/07 02:31:04;;;;;;;17.27;13.77;;;10.00;99.90;;;-141.84;76.27;19724.41;5037794;28;20202;-54
2023/05/07 02:33:34;;;;;;;15.17;13.50;;;10.00;99.90;;;-141.84;76.72;19712.22;5037462;28;20571;-53
2023/05/07 02:36:09;;;;;;;15.80;13.40;;;10.00;99.90;;;-141.84;75.75;19726.44;5037598;28;20672;-52
2023/05/07 02:38:39;;;;;;;15.17;13.50;;;10.00;99.90;;;-141.84;76.40;19683.78;5037553;28;20793;-55
2023/05/07 02:41:07;;;;;;;14.77;13.13;;;10.00;99.90;;;-141.84;76.38;19687.84;5037920;28;20198;-54
2023/05/07 02:43:35;;;;;;;16.13;14.43;;;10.10;99.90;;;-141.84;76.55;19714.25;5037800;28;20210;-52
2023/05/07 02:46:05;;;;;;;15.60;14.00;;;10.00;99.90;;;-141.84;77.20;19667.50;5037380;28;20570;-55
2023/05/07 02:48:36;;;;;;;17.17;14.43;;;10.00;99.90;;;-141.84;76.71;19695.97;5037485;28;20240;-55
2023/05/07 02:51:05;;;;;;;16.37;14.67;;;10.00;99.90;;;-141.84;77.21;19685.81;5037230;28;20556;-54
2023/05/07 02:53:33;;;;;;;15.53;14.00;;;9.90;99.90;;;-141.84;76.66;19716.28;5037760;28;20210;-54
2023/05/07 02:56:03;;;;;;;15.63;13.97;;;9.90;99.90;;;-141.84;77.30;19708.16;5037410;28;20206;-54
2023/05/07 02:58:31;;;;;;;16.27;14.60;;;9.90;99.90;;;-141.84;76.41;19695.97;5037340;28;20679;-50
2023/05/07 03:00:59;;;;;;;15.63;13.97;;;9.90;99.90;;;-141.84;76.56;19651.25;5035571;28;20202;-54
2023/05/07 03:03:27;;;;;;;14.90;13.27;;;9.80;99.90;;;-141.84;76.88;19673.59;5028359;28;20206;-55
2023/05/07 03:05:57;;;;;;;16.57;14.77;;;9.80;99.90;;;-141.84;77.37;19647.19;5023480;28;20226;-52
2023/05/07 03:08:25;;;;;;;14.93;13.43;;;9.70;99.90;;;-141.84;77.40;19655.31;5026769;28;20224;-54
2023/05/07 03:10:54;;;;;;;15.50;13.90;;;9.80;99.90;;;-141.84;78.05;19630.94;5034496;28;20206;-54
2023/05/07 03:13:22;;;;;;;15.80;13.87;;;9.80;99.90;;;-141.84;77.64;19691.91;5034428;28;20205;-54
2023/05/07 03:15:50;;;;;;;14.63;13.10;;;9.80;99.90;;;-141.84;77.66;19643.13;5034760;28;20209;-52
2023/05/07 03:18:19;;;;;;;15.90;13.40;;;9.80;99.90;;;-141.84;77.60;19641.09;5033877;28;20198;-53
2023/05/07 03:20:49;;;;;;;15.67;14.07;;;9.80;99.90;;;-141.84;77.06;19671.56;5033966;28;20241;-55
2023/05/07 03:23:18;;;;;;;14.70;13.07;;;9.80;99.90;;;-141.84;77.09;19649.22;5034642;28;20190;-51
2023/05/07 03:25:47;;;;;;;14.27;12.77;;;9.80;99.90;;;-141.84;77.99;19643.13;5034343;28;20213;-53
2023/05/07 03:28:15;;;;;;;14.57;12.87;;;9.80;99.90;;;-141.84;77.19;19667.50;5033583;28;20230;-54
2023/05/07 03:30:43;;;;;;;15.70;13.27;;;9.80;99.90;;;-141.84;76.25;19708.16;5033866;28;20202;-55
2023/05/07 03:33:11;;;;;;;14.67;13.13;;;9.90;99.90;;;-141.84;76.00;19693.94;5033310;28;20206;-54
2023/05/07 03:35:39;;;;;;;14.57;13.07;;;9.90;99.90;;;-141.84;75.91;19691.91;5033979;28;20229;-54
2023/05/07 03:38:08;;;;;;;14.83;13.13;;;9.90;99.90;;;-141.84;76.86;19632.97;5033975;28;20202;-52
2023/05/07 03:40:37;;;;;;;16.50;13.93;;;9.90;99.90;;;-141.84;76.23;19675.63;5033978;28;20220;-55
2023/05/07 03:43:06;;;;;;;14.43;12.97;;;9.90;99.90;;;-141.84;76.35;19671.56;5033642;28;20701;-53
2023/05/07 03:45:34;;;;;;;14.87;13.00;;;9.90;99.90;;;-141.84;76.70;19673.59;5033624;28;20669;-53
2023/05/07 03:48:02;;;;;;;15.37;13.50;;;9.90;99.90;;;-141.84;77.83;19687.84;5033083;28;20959;-53
2023/05/07 03:50:30;;;;;;;15.07;13.47;;;9.80;99.90;;;-141.84;77.68;19645.16;5033578;28;20224;-54
2023/05/07 03:52:58;;;;;;;15.93;13.53;;;9.90;99.90;;;-141.84;77.38;19663.44;5033573;28;20252;-53
2023/05/07 03:55:27;;;;;;;16.10;14.20;;;9.90;99.90;;;-141.84;77.36;19677.66;5033590;28;20210;-53
2023/05/07 03:57:56;;;;;;;14.90;12.63;;;9.80;99.90;;;-141.84;76.57;19702.06;5033556;28;20209;-53
2023/05/07 04:00:24;;;;;;;14.97;12.90;;;9.90;99.90;;;-141.84;76.67;19706.13;5033137;28;20222;-55
2023/05/07 04:02:52;;;;;;;15.83;13.47;;;9.90;99.90;;;-141.84;77.56;19639.06;5033184;28;20210;-52
2023/05/07 04:05:21;;;;;;;16.97;13.57;;;9.90;99.90;;;-141.84;76.79;19669.53;5033105;28;20581;-55
2023/05/07 04:07:49;;;;;;;16.03;13.43;;;9.90;99.90;;;-141.84;76.78;19671.56;5033320;28;20222;-54
2023/05/07 04:10:17;;;;;;;16.13;13.47;;;9.90;99.90;;;-141.84;76.22;19673.59;5033304;28;20209;-54
2023/05/07 04:12:45;;;;;;;16.97;13.97;;;10.00;99.90;;;-141.84;77.00;19698.00;5033046;28;20213;-52
2023/05/07 04:15:15;;;;;;;16.57;13.87;;;9.90;99.90;;;-141.84;76.65;19647.19;5033197;28;20206;-55
2023/05/07 04:17:43;;;;;;;16.23;13.50;;;9.90;99.90;;;-141.84;77.50;19661.41;5032840;28;20206;-51
2023/05/07 04:20:16;;;;;;;16.17;14.10;;;9.90;99.90;;;-141.84;77.57;19675.63;5032861;28;20204;-55
2023/05/07 04:22:44;;;;;;;16.40;13.97;;;9.90;99.90;;;-141.84;76.95;19661.41;5033213;28;20194;-54
2023/05/07 04:25:12;;;;;;;15.67;14.00;;;9.90;99.90;;;-141.84;76.31;19724.41;5033083;28;20206;-53
2023/05/07 04:27:41;;;;;;;15.80;13.63;;;10.00;99.90;;;-141.84;76.06;19687.84;5032655;28;20233;-54
2023/05/07 04:30:10;;;;;;;15.37;13.77;;;10.00;99.90;;;-141.84;76.06;19720.34;5032856;28;20206;-51
2023/05/07 04:32:40;;;;;;;15.87;14.10;;;10.10;99.90;;;-141.84;75.81;19708.16;5032604;28;20578;-53
2023/05/07 04:35:09;;;;;;;16.17;13.43;;;10.10;99.90;;;-141.84;74.76;19803.69;5032700;28;20202;-54
2023/05/07 04:37:37;;;;;;;16.30;13.33;;;10.30;99.90;;;-141.84;74.80;19734.56;5032839;28;20235;-58
2023/05/07 04:40:07;;;;;;;16.47;13.67;;;10.20;99.90;;;-141.84;75.32;19689.88;5032296;28;20213;-55
2023/05/07 04:42:35;;;;;;;15.63;12.93;;;10.20;99.90;;;-141.84;76.15;19671.56;5032674;28;20182;-55
2023/05/07 04:45:05;;;;;;;15.27;13.20;;;10.10;99.90;;;-141.84;75.98;19716.28;5032373;28;20198;-53
2023/05/07 04:47:33;;;;;;;14.73;12.90;;;10.10;99.90;;;-141.84;76.26;19708.16;5032334;28;20206;-54
2023/05/07 04:50:03;;;;;;;14.67;13.07;;;10.10;99.90;;;-141.84;74.92;19744.75;5032174;28;20253;-56
2023/05/07 04:52:31;;;;;;;15.10;12.97;;;10.20;99.90;;;-141.84;74.84;19724.41;5031762;28;20205;-56
2023/05/07 04:55:00;;;;;;;13.97;12.47;;;10.30;99.90;;;-141.84;75.45;19724.41;5032094;28;20682;-56
2023/05/07 04:57:29;;;;;;;13.03;11.73;;;10.20;99.90;;;-141.84;75.72;19706.13;5032186;28;20678;-54
2023/05/07 04:59:58;;;;;;;14.63;12.73;;;10.10;99.90;;;-141.84;75.18;19732.53;5032071;28;20194;-55
2023/05/07 05:02:26;;;;;;;15.13;12.40;;;10.20;99.90;;;-141.84;74.70;19722.38;5032314;28;20198;-53
2023/05/07 05:04:54;;;;;;;12.80;11.40;;;10.20;99.90;;;-141.84;74.87;19716.28;5032053;28;20232;-54
2023/05/07 05:07:23;;;;;;;13.73;12.20;;;10.20;99.90;;;-141.84;74.12;19724.41;5032024;28;20210;-53
2023/05/07 05:09:51;;;;;;;12.80;11.37;;;10.30;99.90;;;-141.84;74.68;19720.34;5032081;28;20218;-53
2023/05/07 05:12:20;;;;;;;12.90;11.60;;;10.30;99.90;;;-141.84;74.89;19712.22;5032055;28;20293;-51
2023/05/07 05:14:48;;;;;;;13.73;11.83;;;10.20;99.90;;;-141.84;74.34;19718.31;5032245;28;20202;-54
2023/05/07 05:17:16;;;;;;;14.63;12.47;;;10.20;99.90;;;-141.84;74.21;19736.59;5032078;28;20201;-54
2023/05/07 05:19:44;;;;;;;13.50;12.10;;;10.20;99.90;;;-141.84;74.74;19685.81;5032059;28;20422;-51
2023/05/07 05:22:12;;;;;;;13.40;11.73;;;10.20;99.90;;;-141.84;75.33;19708.16;5031735;28;20587;-52
2023/05/07 05:24:42;;;;;;;13.60;12.00;;;10.20;99.90;;;-141.84;75.10;19708.16;5031420;28;20206;-52
2023/05/07 05:27:10;;;;;;;13.37;11.77;;;10.20;99.90;;;-141.84;74.19;19720.34;5031567;28;20478;-54
2023/05/07 05:29:38;;;;;;;12.77;11.20;;;10.20;99.90;;;-141.84;74.92;19702.06;5031770;28;20218;-53
2023/05/07 05:32:06;;;;;;;13.87;11.77;;;10.10;99.90;;;-141.84;74.89;19716.28;5031632;28;20220;-53
2023/05/07 05:34:34;;;;;;;12.93;11.57;;;10.10;99.90;;;-141.84;76.03;19726.44;5031487;28;20292;-53
2023/05/07 05:37:02;;;;;;;11.60;10.40;;;10.10;99.90;;;-141.84;75.93;19698.00;5031559;28;20205;-54
2023/05/07 05:39:31;;;;;;;13.03;11.07;;;10.10;99.90;;;-141.84;74.73;19732.53;5031996;28;20206;-51
2023/05/07 05:42:00;;;;;;;12.33;11.03;;;10.20;99.90;;;-141.84;74.35;19734.56;5031668;28;20205;-51
2023/05/07 05:44:28;;;;;;;13.13;11.40;;;10.30;99.90;;;-141.84;74.00;19724.41;5031830;28;20209;-51
2023/05/07 05:46:59;;;;;;;12.60;10.90;;;10.40;99.90;;;-141.84;73.01;19744.75;5031510;28;20202;-55
2023/05/07 05:49:27;;;;;;;11.13;10.03;;;10.40;99.90;;;-141.84;72.48;19781.31;5031398;28;20206;-55
2023/05/07 05:51:55;;;;;;;11.50;9.83;;;10.40;99.90;;;-141.84;72.24;19754.91;5031345;28;20253;-55
2023/05/07 05:54:23;;;;;;;10.97;9.83;;;10.50;99.90;;;-141.84;72.87;19758.97;5031651;28;20202;-56
2023/05/07 05:56:51;;;;;;;11.50;9.93;;;10.40;99.90;;;-141.84;72.53;19789.44;5031659;28;20308;-55
2023/05/07 05:59:21;;;;;;;9.80;8.80;;;10.50;99.90;;;-141.84;72.52;19765.06;5031709;28;20221;-56
2023/05/07 06:01:49;;;;;;;10.73;9.63;;;10.60;99.90;;;-141.84;70.93;19817.91;5031452;28;20240;-57
2023/05/07 06:04:18;;;;;;;11.57;9.40;;;10.70;99.90;;;-141.84;70.93;19791.47;5031340;28;20733;-52
2023/05/07 06:06:46;;;;;;;10.27;9.17;;;10.80;99.90;;;-141.84;70.92;19801.66;5031394;28;20202;-56
2023/05/07 06:09:14;;;;;;;10.70;9.40;;;10.80;99.90;;;-141.84;69.68;19856.53;5031438;28;20218;-55
2023/05/07 06:11:42;;;;;;;10.00;8.87;;;10.90;99.90;;;-141.84;69.85;19815.88;5031481;28;20198;-51
2023/05/07 06:14:10;;;;;;;11.77;10.57;;;11.00;99.90;;;-141.84;70.07;19856.53;5031578;28;20277;-54
2023/05/07 06:16:40;;;;;;;12.67;10.03;;;11.00;99.90;;;-141.84;70.10;19813.84;5030684;28;20213;-55
2023/05/07 06:19:08;;;;;;;11.03;9.63;;;11.00;99.90;;;-141.84;69.81;19862.63;5030709;28;20214;-55
2023/05/07 06:21:36;;;;;;;11.57;10.40;;;11.00;99.90;;;-141.84;69.15;19819.94;5031081;28;20206;-54
2023/05/07 06:24:04;;;;;;;11.07;9.97;;;11.00;99.90;;;-141.84;69.67;19826.03;5030842;28;20721;-56
2023/05/07 06:26:32;;;;;;;11.73;10.07;;;10.90;99.90;;;-141.84;70.34;19789.44;5030003;28;20567;-56
2023/05/07 06:29:01;;;;;;;11.17;10.07;;;10.80;99.90;;;-141.84;70.32;19813.84;5030834;28;20226;-53
2023/05/07 06:31:32;;;;;;;11.10;9.97;;;10.80;99.90;;;-141.84;70.30;19803.69;5030341;28;20202;-54
2023/05/07 06:34:02;;;;;;;11.93;10.53;;;10.70;99.90;;;-141.84;69.73;19821.97;5030730;28;20210;-52
2023/05/07 06:36:30;;;;;;;11.63;10.43;;;10.90;99.90;;;-141.84;69.50;19840.25;5032658;28;20320;-54
2023/05/07 06:38:58;;;;;;;11.60;10.33;;;11.00;99.90;;;-141.84;69.20;19840.25;5035023;28;20208;-53
2023/05/07 06:41:26;;;;;;;11.43;10.27;;;11.00;99.90;;;-141.84;69.44;19852.44;5034588;28;20212;-54
2023/05/07 06:43:54;;;;;;;11.97;10.77;;;11.10;99.90;;;-141.84;68.88;19846.34;5034962;28;20575;-54
2023/05/07 06:46:23;;;;;;;11.97;10.23;;;11.10;99.90;;;-141.84;69.37;19870.75;5034756;28;20224;-52
2023/05/07 06:48:52;;;;;;;12.27;10.97;;;11.10;99.90;;;-141.84;68.35;19864.66;5034431;28;20198;-54
2023/05/07 06:51:21;;;;;;;12.83;10.50;;;11.20;99.90;;;-141.84;67.25;19907.31;5034601;28;20206;-54
2023/05/07 06:53:49;;;;;;;11.20;10.00;;;11.30;99.90;;;-141.84;68.10;19903.25;5034282;28;20686;-55
2023/05/07 06:56:17;;;;;;;10.63;9.57;;;11.30;99.90;;;-141.84;67.18;19876.84;5034375;28;20202;-55
2023/05/07 06:58:46;;;;;;;10.90;9.53;;;11.30;99.90;;;-141.84;67.84;19880.91;5034531;28;20202;-51
2023/05/07 07:01:14;;;;;;;11.17;10.07;;;11.30;99.90;;;-141.84;67.38;19899.19;5034342;28;20210;-55
2023/05/07 07:03:43;;;;;;;11.40;10.30;;;11.30;99.90;;;-141.84;67.48;19868.72;5033992;28;20268;-54
2023/05/07 07:06:11;;;;;;;10.60;9.50;;;11.30;99.90;;;-141.84;68.28;19876.84;5034304;28;20685;-55
2023/05/07 07:08:40;;;;;;;12.07;10.10;;;11.10;99.90;;;-141.84;68.64;19856.53;5034237;28;20198;-56
2023/05/07 07:11:10;;;;;;;11.13;9.97;;;11.20;99.90;;;-141.84;68.05;19876.84;5034345;28;20223;-54
2023/05/07 07:13:39;;;;;;;9.83;8.83;;;11.20;99.90;;;-141.84;66.99;19923.59;5034245;28;20202;-55
2023/05/07 07:16:08;;;;;;;10.10;9.10;;;11.40;99.90;;;-141.84;66.56;19935.78;5034247;28;20202;-55
2023/05/07 07:18:36;;;;;;;9.30;8.40;;;11.60;99.90;;;-141.84;65.16;19954.06;5033743;28;20642;-52
2023/05/07 07:21:04;;;;;;;9.23;8.33;;;11.60;99.90;;;-141.84;65.30;19952.03;5034329;28;20206;-55
2023/05/07 07:23:33;;;;;;;9.60;8.60;;;11.60;99.90;;;-141.84;64.74;20015.03;5034138;28;20564;-52
2023/05/07 07:26:03;;;;;;;9.20;8.23;;;11.80;99.90;;;-141.84;63.57;20025.22;5033993;28;20202;-55
2023/05/07 07:28:31;;;;;;;8.77;7.97;;;12.00;99.90;;;-141.84;62.66;20094.31;5034098;28;20202;-55
2023/05/07 07:30:59;;;;;;;8.50;7.60;;;12.20;99.90;;;-141.84;62.07;20102.44;5033733;28;20232;-56
2023/05/07 07:33:27;;;;;;;8.53;7.73;;;12.50;99.90;;;-141.84;60.35;20134.97;5033507;28;20208;-56
2023/05/07 07:35:56;;;;;;;8.40;7.60;;;12.70;99.90;;;-141.84;59.71;20175.63;5033676;28;20662;-55
2023/05/07 07:38:25;;;;;;;7.67;6.97;;;12.90;99.90;;;-141.84;60.34;20183.75;5021907;28;20210;-57
2023/05/07 07:40:53;;;;;;;8.23;7.43;;;12.90;99.90;;;-141.84;60.25;20143.09;5014070;28;20566;-54
2023/05/07 07:43:22;;;;;;;8.27;7.40;;;12.90;99.90;;;-141.84;60.50;20145.13;5013972;28;20225;-55
2023/05/07 07:45:51;;;;;;;8.55;7.75;;;12.80;99.90;;;-141.84;60.00;20147.16;5013863;28;20203;-53
2023/05/07 07:48:19;;;;;;;7.25;6.63;;;12.90;99.90;;;-141.84;59.52;20159.34;5012941;28;20654;-55
2023/05/07 07:50:50;;;;;;;7.43;6.73;;;12.80;99.90;;;-141.84;59.68;20197.97;5031518;28;20218;-53
2023/05/07 07:53:19;;;;;;;8.00;7.20;;;12.80;99.90;;;-141.84;59.61;20145.13;5013602;28;20189;-54
2023/05/07 07:55:47;;;;;;;7.53;6.87;;;12.90;99.90;;;-141.84;60.07;20189.84;5013929;28;20237;-54
2023/05/07 07:58:15;;;;;;;7.50;6.80;;;12.80;99.90;;;-141.84;59.54;20126.84;5013540;28;20198;-56
2023/05/07 08:00:45;;;;;;;7.30;6.50;;;12.80;99.90;;;-141.84;60.30;20120.75;5020945;28;20195;-57
2023/05/07 08:03:14;;;;;;;7.03;6.33;;;12.80;99.90;;;-141.84;60.72;20114.63;5033179;28;20268;-54
2023/05/07 08:05:42;;;;;;;7.57;6.90;;;12.60;99.90;;;-141.84;61.92;20053.66;5033157;28;20226;-56
2023/05/07 08:08:10;;;;;;;6.83;6.23;;;12.40;99.90;;;-141.84;62.37;20006.91;5033211;28;20205;-54
2023/05/07 08:10:39;;;;;;;6.80;6.10;;;12.30;99.90;;;-141.84;62.15;20023.19;5032916;28;20621;-54
2023/05/07 08:13:07;;;;;;;6.77;6.17;;;12.20;99.90;;;-141.84;61.88;20041.47;5032887;28;20441;-57
2023/05/07 08:15:36;;;;;;;8.07;6.03;;;12.20;99.90;;;-141.84;61.86;20053.66;5032829;28;20232;-55
2023/05/07 08:18:05;;;;;;;6.43;5.90;;;12.20;99.90;;;-141.84;62.15;20008.94;5032336;28;20701;-55
2023/05/07 08:20:39;;;;;;;6.20;5.60;;;12.10;99.90;;;-141.84;62.63;20004.88;5033020;28;20202;-55
2023/05/07 08:23:07;;;;;;;6.23;5.63;;;11.90;99.90;;;-141.84;62.86;20027.25;5030262;28;20201;-56
2023/05/07 08:25:37;;;;;;;6.03;5.53;;;12.00;99.90;;;-141.84;61.89;20069.94;5032821;28;20206;-57
2023/05/07 08:28:05;;;;;;;6.00;5.50;;;12.10;99.90;;;-141.84;60.89;20080.09;5032530;28;20234;-53
2023/05/07 08:30:36;;;;;;;5.80;5.30;;;12.30;99.90;;;-141.84;60.66;20063.81;5032629;28;20217;-54
2023/05/07 08:33:06;;;;;;;6.07;5.57;;;12.30;99.90;;;-141.84;60.72;20076.03;5032058;28;20252;-55
2023/05/07 08:35:34;;;;;;;5.93;5.43;;;12.30;99.90;;;-141.84;61.26;20051.63;5032534;28;20652;-57
2023/05/07 08:38:02;;;;;;;6.03;5.43;;;12.30;99.90;;;-141.84;60.60;20047.56;5032574;28;20207;-55
2023/05/07 08:40:37;;;;;;;5.47;5.07;;;12.30;99.90;;;-141.84;60.54;20069.94;5032638;28;20202;-53
2023/05/07 08:43:07;;;;;;;5.87;5.37;;;12.20;99.90;;;-141.84;60.87;20084.16;5032517;28;20277;-55
2023/05/07 08:45:36;;;;;;;6.00;5.50;;;12.30;99.90;;;-141.84;60.29;20069.94;5032597;28;20217;-53
2023/05/07 08:48:15;;;;;;;6.00;5.50;;;12.20;99.90;;;-141.84;61.20;20021.16;5031981;28;20685;-54
2023/05/07 08:50:43;;;;;;;6.37;5.70;;;12.10;99.90;;;-141.84;61.59;20053.66;5032230;28;20206;-54
2023/05/07 08:53:11;;;;;;;5.80;5.30;;;12.00;99.90;;;-141.84;61.74;20035.38;5012906;28;20195;-54
2023/05/07 08:55:39;;;;;;;5.97;5.47;;;12.00;99.90;;;-141.84;62.32;20008.94;5012608;28;20207;-54
2023/05/07 08:58:08;;;;;;;6.47;5.90;;;12.10;99.90;;;-141.84;60.88;20051.63;5012721;28;20230;-55
2023/05/07 09:00:39;;;;;;;6.77;6.17;;;12.20;99.90;;;-141.84;60.40;20069.94;5018264;28;20659;-57
2023/05/07 09:03:12;;;;;;;6.80;6.20;;;12.30;99.90;;;-141.84;60.28;20076.03;5031993;28;20217;-56
2023/05/07 09:05:40;;;;;;;6.90;6.30;;;12.30;99.90;;;-141.84;59.53;20084.16;5031926;28;20272;-54
2023/05/07 09:08:10;;;;;;;6.50;5.90;;;12.40;99.90;;;-141.84;59.75;20102.44;5031413;28;20205;-56
2023/05/07 09:10:38;;;;;;;6.67;6.10;;;12.50;99.90;;;-141.84;59.90;20098.38;5031978;28;20225;-56
2023/05/07 09:13:06;;;;;;;6.53;6.00;;;12.40;99.90;;;-141.84;60.17;20096.34;5031790;28;20202;-55
2023/05/07 09:15:35;;;;;;;7.40;6.70;;;12.40;99.90;;;-141.84;60.13;20082.13;5032083;28;20206;-57
2023/05/07 09:18:03;;;;;;;7.23;6.20;;;12.40;99.90;;;-141.84;60.05;20102.44;5026825;28;20214;-70
2023/05/07 09:20:33;;;;;;;7.00;6.40;;;12.50;99.90;;;-141.84;59.84;20090.25;5011730;28;20671;-70
2023/05/07 09:23:01;;;;;;;7.43;6.73;;;12.50;99.90;;;-141.84;59.93;20094.31;5023822;28;20689;-69
2023/05/07 09:25:31;;;;;;;6.93;6.33;;;12.40;99.90;;;-141.84;60.45;20069.94;5026054;28;20611;-70
2023/05/07 09:28:01;;;;;;;7.10;6.50;;;12.40;99.90;;;-141.84;60.87;20098.38;5030788;28;20815;-69
2023/05/07 09:30:30;;;;;;;7.83;6.20;;;12.40;99.90;;;-141.84;60.56;20122.78;5031902;28;20220;-70
2023/05/07 09:33:00;;;;;;;7.00;6.40;;;12.50;99.90;;;-141.84;60.89;20120.75;5032000;28;20204;-70
2023/05/07 09:35:29;;;;;;;7.20;6.60;;;12.60;99.90;;;-141.84;59.54;20157.31;5031509;28;20202;-70
2023/05/07 09:38:01;;;;;;;7.00;6.40;;;12.70;99.90;;;-141.84;59.64;20143.09;5031742;28;20210;-70
2023/05/07 09:40:32;;;;;;;7.83;7.13;;;12.80;99.90;;;-141.84;59.81;20112.59;5032351;28;20190;-70
2023/05/07 09:43:11;;;;;;;7.63;6.93;;;12.70;99.90;;;-141.84;59.71;20169.53;5031684;28;20198;-70
2023/05/07 09:45:40;;;;;;;7.77;7.07;;;12.80;99.90;;;-141.84;59.50;20118.69;5031284;28;20640;-69
2023/05/07 09:48:09;;;;;;;7.40;6.70;;;12.70;99.90;;;-141.84;59.90;20175.63;5030144;28;20244;-73
2023/05/07 09:50:49;;;;;;;6.73;6.10;;;12.70;99.90;;;-141.84;59.67;20151.22;5030216;28;20206;-74
2023/05/07 09:53:20;;;;;;;7.30;6.60;;;12.70;99.90;;;-141.84;59.72;20173.59;5029001;28;20226;-72
2023/05/07 09:55:49;;;;;;;7.10;6.50;;;12.70;99.90;;;-141.84;58.94;20173.59;5029234;28;20304;-71
2023/05/07 09:58:20;;;;;;;7.07;6.37;;;12.80;99.90;;;-141.84;59.19;20167.47;5026243;28;20202;-67
2023/05/07 10:00:50;;;;;;;6.43;5.93;;;12.80;99.90;;;-141.84;59.45;20147.16;5030097;28;20195;-70
2023/05/07 10:03:21;;;;;;;6.70;6.20;;;12.80;99.90;;;-141.84;59.48;20165.44;5030248;28;20285;-69
2023/05/07 10:05:51;;;;;;;6.97;6.27;;;12.80;99.90;;;-141.84;59.55;20171.56;5029413;28;20194;-70
2023/05/07 10:08:21;;;;;;;6.80;6.20;;;12.90;99.90;;;-141.84;58.76;20208.13;5030113;28;20205;-68